createdAt,value
2018-10-17T00:00:24.004Z,0.77
2018-10-17T00:01:24.477Z,0.80
2018-10-17T00:02:24.946Z,0.80
2018-10-17T00:03:25.419Z,0.81
2018-10-17T00:04:25.886Z,0.82
2018-10-17T00:05:26.358Z,0.82
2018-10-17T00:06:26.826Z,0.84
2018-10-17T00:07:27.296Z,0.86
2018-10-17T00:08:27.768Z,0.88
2018-10-17T00:09:28.241Z,0.90
2018-10-17T00:10:28.707Z,0.90
2018-10-17T00:11:29.177Z,0.87
2018-10-17T00:12:29.649Z,0.86
2018-10-17T00:13:30.117Z,0.88
2018-10-17T00:14:30.586Z,0.90
2018-10-17T00:15:31.057Z,0.86
2018-10-17T00:16:31.532Z,0.84
2018-10-17T00:17:31.996Z,0.86
2018-10-17T00:18:32.467Z,0.86
2018-10-17T00:19:32.986Z,0.86
2018-10-17T00:20:33.407Z,0.86
2018-10-17T00:21:33.877Z,0.87
2018-10-17T00:22:34.349Z,0.88
2018-10-17T00:23:34.817Z,0.84
2018-10-17T00:24:35.286Z,0.79
2018-10-17T00:25:35.759Z,0.72
2018-10-17T00:26:36.226Z,0.67
2018-10-17T00:27:36.710Z,0.68
2018-10-17T00:28:37.168Z,0.70
2018-10-17T00:29:37.647Z,0.71
2018-10-17T00:30:38.110Z,0.72
2018-10-17T00:31:38.588Z,0.70
2018-10-17T00:32:39.055Z,0.72
2018-10-17T00:33:39.527Z,0.74
2018-10-17T00:34:39.999Z,0.76
2018-10-17T00:35:40.469Z,0.74
2018-10-17T00:36:40.941Z,0.72
2018-10-17T00:37:41.415Z,0.64
2018-10-17T00:38:41.884Z,0.67
2018-10-17T00:39:42.358Z,0.68
2018-10-17T00:40:42.830Z,0.68
2018-10-17T00:41:43.303Z,0.65
2018-10-17T00:42:43.774Z,0.63
2018-10-17T00:43:44.248Z,0.60
2018-10-17T00:44:44.772Z,0.52
2018-10-17T00:45:45.195Z,0.48
2018-10-17T00:46:45.669Z,0.49
2018-10-17T00:47:46.140Z,0.50
2018-10-17T00:48:46.613Z,0.54
2018-10-17T00:49:47.140Z,0.55
2018-10-17T00:50:47.560Z,0.50
2018-10-17T00:51:48.037Z,0.49
2018-10-17T00:52:48.507Z,0.48
2018-10-17T00:53:48.984Z,0.58
2018-10-17T00:54:49.454Z,0.60
2018-10-17T00:55:49.930Z,0.59
2018-10-17T00:56:50.402Z,0.61
2018-10-17T00:57:50.877Z,0.62
2018-10-17T00:58:51.371Z,0.65
2018-10-17T00:59:51.821Z,0.70
2018-10-17T01:00:52.336Z,0.71
2018-10-17T01:01:52.771Z,0.70
2018-10-17T01:02:53.238Z,0.67
2018-10-17T01:03:53.710Z,0.66
2018-10-17T01:04:54.236Z,0.66
2018-10-17T01:05:54.655Z,0.66
2018-10-17T01:06:55.165Z,0.68
2018-10-17T01:07:55.597Z,0.69
2018-10-17T01:08:56.067Z,0.66
2018-10-17T01:09:56.539Z,0.62
2018-10-17T01:10:57.016Z,0.61
2018-10-17T01:11:57.483Z,0.60
2018-10-17T01:12:58.005Z,0.59
2018-10-17T01:13:58.424Z,0.54
2018-10-17T01:14:58.891Z,0.48
2018-10-17T01:15:59.361Z,0.44
2018-10-17T01:16:59.858Z,0.49
2018-10-17T01:18:00.302Z,0.58
2018-10-17T01:19:00.832Z,0.60
2018-10-17T01:20:01.291Z,0.58
2018-10-17T01:21:01.710Z,0.60
2018-10-17T01:22:02.187Z,0.62
2018-10-17T01:23:02.680Z,0.64
2018-10-17T01:24:03.121Z,0.68
2018-10-17T01:25:03.663Z,0.72
2018-10-17T01:26:04.059Z,0.74
2018-10-17T01:27:04.527Z,0.74
2018-10-17T01:28:04.998Z,0.75
2018-10-17T01:29:05.491Z,0.76
2018-10-17T01:30:05.940Z,0.76
2018-10-17T01:31:06.442Z,0.76
2018-10-17T01:32:06.879Z,0.76
2018-10-17T01:33:07.347Z,0.76
2018-10-17T01:34:07.817Z,0.74
2018-10-17T01:35:08.370Z,0.76
2018-10-17T01:36:08.756Z,0.74
2018-10-17T01:37:09.298Z,0.72
2018-10-17T01:38:09.700Z,0.70
2018-10-17T01:39:10.168Z,0.71
2018-10-17T01:40:10.688Z,0.72
2018-10-17T01:41:11.206Z,0.74
2018-10-17T01:42:11.580Z,0.76
2018-10-17T01:43:12.078Z,0.76
2018-10-17T01:44:12.523Z,0.74
2018-10-17T01:45:12.993Z,0.72
2018-10-17T01:46:13.468Z,0.72
2018-10-17T01:47:14.003Z,0.74
2018-10-17T01:48:14.412Z,0.73
2018-10-17T01:49:14.938Z,0.72
2018-10-17T01:50:15.354Z,0.72
2018-10-17T01:51:15.823Z,0.71
2018-10-17T01:52:16.297Z,0.72
2018-10-17T01:53:16.769Z,0.73
2018-10-17T01:54:17.242Z,0.74
2018-10-17T01:55:17.715Z,0.74
2018-10-17T01:56:18.187Z,0.72
2018-10-17T01:57:18.662Z,0.70
2018-10-17T01:58:19.134Z,0.65
2018-10-17T01:59:19.608Z,0.65
2018-10-17T02:00:20.078Z,0.65
2018-10-17T02:01:20.551Z,0.65
2018-10-17T02:02:21.026Z,0.64
2018-10-17T02:03:21.498Z,0.66
2018-10-17T02:04:21.973Z,0.64
2018-10-17T02:05:22.447Z,0.61
2018-10-17T02:06:22.921Z,0.61
2018-10-17T02:07:23.391Z,0.62
2018-10-17T02:08:23.869Z,0.62
2018-10-17T02:09:24.337Z,0.60
2018-10-17T02:10:24.811Z,0.60
2018-10-17T02:11:25.283Z,0.58
2018-10-17T02:12:25.756Z,0.56
2018-10-17T02:13:26.229Z,0.56
2018-10-17T02:14:26.701Z,0.56
2018-10-17T02:15:27.224Z,0.57
2018-10-17T02:16:27.646Z,0.56
2018-10-17T02:17:28.119Z,0.53
2018-10-17T02:18:28.591Z,0.52
2018-10-17T02:19:29.062Z,0.52
2018-10-17T02:20:29.533Z,0.53
2018-10-17T02:21:30.007Z,0.50
2018-10-17T02:22:30.483Z,0.48
2018-10-17T02:23:30.944Z,0.48
2018-10-17T02:24:31.416Z,0.46
2018-10-17T02:25:31.886Z,0.47
2018-10-17T02:26:32.359Z,0.50
2018-10-17T02:27:32.825Z,0.48
2018-10-17T02:28:33.299Z,0.51
2018-10-17T02:29:33.766Z,0.49
2018-10-17T02:30:34.288Z,0.49
2018-10-17T02:31:34.705Z,0.49
2018-10-17T02:32:35.175Z,0.50
2018-10-17T02:33:35.645Z,0.46
2018-10-17T02:34:36.116Z,0.46
2018-10-17T02:35:36.633Z,0.42
2018-10-17T02:36:37.095Z,0.40
2018-10-17T02:37:37.523Z,0.44
2018-10-17T02:38:37.993Z,0.48
2018-10-17T02:39:38.558Z,0.47
2018-10-17T02:40:38.932Z,0.48
2018-10-17T02:41:39.401Z,0.44
2018-10-17T02:42:39.870Z,0.43
2018-10-17T02:43:40.339Z,0.42
2018-10-17T02:44:40.813Z,0.42
2018-10-17T02:45:41.279Z,0.38
2018-10-17T02:46:41.756Z,0.40
2018-10-17T02:47:42.219Z,0.38
2018-10-17T02:48:42.690Z,0.34
2018-10-17T02:49:43.162Z,0.36
2018-10-17T02:50:43.682Z,0.35
2018-10-17T02:51:44.102Z,0.35
2018-10-17T02:52:44.570Z,0.35
2018-10-17T02:53:45.042Z,0.31
2018-10-17T02:54:45.512Z,0.30
2018-10-17T02:55:45.983Z,0.28
2018-10-17T02:56:46.452Z,0.26
2018-10-17T02:57:46.925Z,0.28
2018-10-17T02:58:47.397Z,0.29
2018-10-17T02:59:47.873Z,0.30
2018-10-17T03:00:48.342Z,0.32
2018-10-17T03:01:48.813Z,0.32
2018-10-17T03:02:49.288Z,0.28
2018-10-17T03:03:49.754Z,0.26
2018-10-17T03:04:50.227Z,0.26
2018-10-17T03:05:50.700Z,0.20
2018-10-17T03:06:51.200Z,0.18
2018-10-17T03:07:51.642Z,0.18
2018-10-17T03:08:52.114Z,0.16
2018-10-17T03:09:52.590Z,0.12
2018-10-17T03:10:53.123Z,0.13
2018-10-17T03:11:53.537Z,0.14
2018-10-17T03:12:54.014Z,0.14
2018-10-17T03:13:54.481Z,0.16
2018-10-17T03:14:54.953Z,0.19
2018-10-17T03:15:55.425Z,0.19
2018-10-17T03:16:55.948Z,0.20
2018-10-17T03:17:56.374Z,0.19
2018-10-17T03:18:56.923Z,0.21
2018-10-17T03:19:57.320Z,0.20
2018-10-17T03:20:57.795Z,0.20
2018-10-17T03:21:58.268Z,0.16
2018-10-17T03:22:58.745Z,0.12
2018-10-17T03:23:59.213Z,0.12
2018-10-17T03:24:59.713Z,0.11
2018-10-17T03:26:00.162Z,0.09
2018-10-17T03:27:00.631Z,0.06
2018-10-17T03:28:01.156Z,0.02
2018-10-17T03:29:01.643Z,0.02
2018-10-17T03:30:02.055Z,0.02
2018-10-17T03:31:02.569Z,0.10
2018-10-17T03:32:02.991Z,0.16
2018-10-17T03:33:03.464Z,0.22
2018-10-17T03:34:03.937Z,0.26
2018-10-17T03:35:04.468Z,0.30
2018-10-17T03:36:04.915Z,0.31
2018-10-17T03:37:05.408Z,0.33
2018-10-17T03:38:05.820Z,0.33
2018-10-17T03:39:06.291Z,0.32
2018-10-17T03:40:06.760Z,0.34
2018-10-17T03:41:07.284Z,0.35
2018-10-17T03:42:07.702Z,0.35
2018-10-17T03:43:08.210Z,0.38
2018-10-17T03:44:08.641Z,0.38
2018-10-17T03:45:09.112Z,0.36
2018-10-17T03:46:09.631Z,0.36
2018-10-17T03:47:10.093Z,0.40
2018-10-17T03:48:10.519Z,0.38
2018-10-17T03:49:11.032Z,0.40
2018-10-17T03:50:11.457Z,0.38
2018-10-17T03:51:11.980Z,0.38
2018-10-17T03:52:12.406Z,0.37
2018-10-17T03:53:12.932Z,0.37
2018-10-17T03:54:13.336Z,0.34
2018-10-17T03:55:13.904Z,0.34
2018-10-17T03:56:14.277Z,0.34
2018-10-17T03:57:14.745Z,0.34
2018-10-17T03:58:15.216Z,0.36
2018-10-17T03:59:15.853Z,0.34
2018-10-17T04:00:16.154Z,0.36
2018-10-17T04:01:16.698Z,0.35
2018-10-17T04:02:17.098Z,0.35
2018-10-17T04:03:17.565Z,0.34
2018-10-17T04:04:18.035Z,0.32
2018-10-17T04:05:18.557Z,0.30
2018-10-17T04:06:18.976Z,0.30
2018-10-17T04:07:19.492Z,0.24
2018-10-17T04:08:19.915Z,0.26
2018-10-17T04:09:20.389Z,0.27
2018-10-17T04:10:20.858Z,0.26
2018-10-17T04:11:21.329Z,0.24
2018-10-17T04:12:21.800Z,0.24
2018-10-17T04:13:22.273Z,0.24
2018-10-17T04:14:22.741Z,0.26
2018-10-17T04:15:23.221Z,0.27
2018-10-17T04:16:23.687Z,0.29
2018-10-17T04:17:24.159Z,0.29
2018-10-17T04:18:24.629Z,0.32
2018-10-17T04:19:25.102Z,0.32
2018-10-17T04:20:25.574Z,0.32
2018-10-17T04:21:26.046Z,0.30
2018-10-17T04:22:26.572Z,0.28
2018-10-17T04:23:26.993Z,0.29
2018-10-17T04:24:27.462Z,0.28
2018-10-17T04:25:27.937Z,0.26
2018-10-17T04:26:28.412Z,0.26
2018-10-17T04:27:28.885Z,0.26
2018-10-17T04:28:29.354Z,0.26
2018-10-17T04:29:29.831Z,0.26
2018-10-17T04:30:30.303Z,0.26
2018-10-17T04:31:30.776Z,0.27
2018-10-17T04:32:31.247Z,0.27
2018-10-17T04:33:31.720Z,0.26
2018-10-17T04:34:32.195Z,0.27
2018-10-17T04:35:32.671Z,0.27
2018-10-17T04:36:33.141Z,0.28
2018-10-17T04:37:33.613Z,0.32
2018-10-17T04:38:34.087Z,0.34
2018-10-17T04:39:34.561Z,0.34
2018-10-17T04:40:35.032Z,0.37
2018-10-17T04:41:35.507Z,0.39
2018-10-17T04:42:35.980Z,0.40
2018-10-17T04:43:36.459Z,0.40
2018-10-17T04:44:36.926Z,0.40
2018-10-17T04:45:37.396Z,0.42
2018-10-17T04:46:37.873Z,0.45
2018-10-17T04:47:38.372Z,0.48
2018-10-17T04:48:38.810Z,0.48
2018-10-17T04:49:39.282Z,0.48
2018-10-17T04:50:39.753Z,0.44
2018-10-17T04:51:40.227Z,0.41
2018-10-17T04:52:40.694Z,0.38
2018-10-17T04:53:41.164Z,0.36
2018-10-17T04:54:41.636Z,0.34
2018-10-17T04:55:42.111Z,0.34
2018-10-17T04:56:42.576Z,0.31
2018-10-17T04:57:43.046Z,0.28
2018-10-17T04:58:43.516Z,0.24
2018-10-17T04:59:43.987Z,0.20
2018-10-17T05:00:44.453Z,0.16
2018-10-17T05:01:44.924Z,0.13
2018-10-17T05:02:45.395Z,0.14
2018-10-17T05:03:45.863Z,0.16
2018-10-17T05:04:46.333Z,0.20
2018-10-17T05:05:46.801Z,0.22
2018-10-17T05:06:47.377Z,0.26
2018-10-17T05:07:47.740Z,0.28
2018-10-17T05:08:48.210Z,0.29
2018-10-17T05:09:48.680Z,0.25
2018-10-17T05:10:49.149Z,0.22
2018-10-17T05:11:49.617Z,0.18
2018-10-17T05:12:50.087Z,0.13
2018-10-17T05:13:50.559Z,0.12
2018-10-17T05:14:51.032Z,0.10
2018-10-17T05:15:51.496Z,0.06
2018-10-17T05:16:51.970Z,0.05
2018-10-17T05:17:52.436Z,0.03
2018-10-17T05:18:52.925Z,0.01
2018-10-17T05:19:53.378Z,0.01
2018-10-17T05:20:53.847Z,-0.02
2018-10-17T05:21:54.317Z,-0.04
2018-10-17T05:22:54.840Z,-0.07
2018-10-17T05:23:55.258Z,-0.09
2018-10-17T05:24:55.771Z,-0.10
2018-10-17T05:25:56.200Z,-0.12
2018-10-17T05:26:56.670Z,-0.14
2018-10-17T05:27:57.143Z,-0.14
2018-10-17T05:28:57.675Z,-0.12
2018-10-17T05:29:58.084Z,-0.10
2018-10-17T05:30:58.592Z,-0.10
2018-10-17T05:31:59.079Z,-0.12
2018-10-17T05:32:59.503Z,-0.13
2018-10-17T05:33:59.971Z,-0.12
2018-10-17T05:35:00.502Z,-0.13
2018-10-17T05:36:00.916Z,-0.14
2018-10-17T05:37:01.511Z,-0.14
2018-10-17T05:38:01.884Z,-0.14
2018-10-17T05:39:02.332Z,-0.18
2018-10-17T05:40:02.804Z,-0.20
2018-10-17T05:41:03.303Z,-0.22
2018-10-17T05:42:03.748Z,-0.22
2018-10-17T05:43:04.263Z,-0.23
2018-10-17T05:44:04.695Z,-0.22
2018-10-17T05:45:05.169Z,-0.20
2018-10-17T05:46:05.639Z,-0.22
2018-10-17T05:47:06.179Z,-0.22
2018-10-17T05:48:06.586Z,-0.18
2018-10-17T05:49:07.142Z,-0.16
2018-10-17T05:50:07.537Z,-0.14
2018-10-17T05:51:08.005Z,-0.08
2018-10-17T05:52:08.481Z,-0.04
2018-10-17T05:53:09.004Z,0.00
2018-10-17T05:54:09.426Z,0.04
2018-10-17T05:55:09.990Z,0.06
2018-10-17T05:56:10.373Z,0.10
2018-10-17T05:57:10.895Z,0.10
2018-10-17T05:58:11.318Z,0.11
2018-10-17T05:59:11.863Z,0.16
2018-10-17T06:00:12.264Z,0.18
2018-10-17T06:01:12.784Z,0.18
2018-10-17T06:02:13.319Z,0.21
2018-10-17T06:03:13.681Z,0.24
2018-10-17T06:04:14.152Z,0.28
2018-10-17T06:05:14.682Z,0.34
2018-10-17T06:06:15.094Z,0.40
2018-10-17T06:07:15.566Z,0.44
2018-10-17T06:08:16.038Z,0.48
2018-10-17T06:09:16.510Z,0.58
2018-10-17T06:10:17.046Z,0.71
2018-10-17T06:11:17.450Z,0.77
2018-10-17T06:12:17.935Z,0.86
2018-10-17T06:13:18.396Z,0.94
2018-10-17T06:14:18.862Z,1.01
2018-10-17T06:15:19.327Z,1.08
2018-10-17T06:16:19.800Z,1.07
2018-10-17T06:17:20.347Z,1.12
2018-10-17T06:18:20.738Z,1.14
2018-10-17T06:19:21.208Z,1.16
2018-10-17T06:20:21.678Z,1.22
2018-10-17T06:21:22.148Z,1.29
2018-10-17T06:22:22.616Z,1.39
2018-10-17T06:23:23.087Z,1.53
2018-10-17T06:24:23.559Z,1.68
2018-10-17T06:25:24.026Z,1.86
2018-10-17T06:26:24.495Z,2.03
2018-10-17T06:27:24.969Z,2.22
2018-10-17T06:28:25.450Z,2.36
2018-10-17T06:29:25.904Z,2.48
2018-10-17T06:30:26.375Z,2.54
2018-10-17T06:31:26.848Z,2.65
2018-10-17T06:32:27.314Z,2.72
2018-10-17T06:33:27.785Z,2.70
2018-10-17T06:34:28.263Z,2.68
2018-10-17T06:35:28.727Z,2.63
2018-10-17T06:36:29.195Z,2.64
2018-10-17T06:37:29.664Z,2.64
2018-10-17T06:38:30.136Z,2.64
2018-10-17T06:39:30.810Z,2.62
2018-10-17T06:40:31.078Z,2.58
2018-10-17T06:41:31.549Z,2.56
2018-10-17T06:42:32.022Z,2.58
2018-10-17T06:43:32.515Z,2.57
2018-10-17T06:44:32.963Z,2.54
2018-10-17T06:45:33.456Z,2.47
2018-10-17T06:46:33.907Z,2.34
2018-10-17T06:47:34.379Z,2.18
2018-10-17T06:48:34.850Z,2.17
2018-10-17T06:49:35.320Z,2.20
2018-10-17T06:50:35.795Z,2.28
2018-10-17T06:51:36.267Z,2.36
2018-10-17T06:52:36.739Z,2.46
2018-10-17T06:53:37.213Z,2.56
2018-10-17T06:54:37.685Z,2.71
2018-10-17T06:55:38.161Z,2.88
2018-10-17T06:56:38.632Z,2.98
2018-10-17T06:57:39.106Z,3.03
2018-10-17T06:58:39.578Z,3.00
2018-10-17T06:59:40.051Z,2.98
2018-10-17T07:00:40.526Z,2.92
2018-10-17T07:01:41.066Z,2.85
2018-10-17T07:02:41.472Z,2.75
2018-10-17T07:03:41.948Z,2.66
2018-10-17T07:04:42.422Z,2.56
2018-10-17T07:05:42.892Z,2.53
2018-10-17T07:06:43.367Z,2.56
2018-10-17T07:07:43.841Z,2.58
2018-10-17T07:08:44.314Z,2.64
2018-10-17T07:09:44.787Z,2.64
2018-10-17T07:10:45.262Z,2.72
2018-10-17T07:11:45.735Z,2.73
2018-10-17T07:12:46.206Z,2.77
2018-10-17T07:13:46.681Z,2.82
2018-10-17T07:14:47.155Z,2.84
2018-10-17T07:15:47.674Z,2.78
2018-10-17T07:16:48.099Z,2.78
2018-10-17T07:17:48.585Z,2.78
2018-10-17T07:18:49.042Z,2.78
2018-10-17T07:19:49.514Z,2.78
2018-10-17T07:20:49.991Z,2.71
2018-10-17T07:21:50.459Z,2.69
2018-10-17T07:22:50.931Z,2.67
2018-10-17T07:23:51.400Z,2.72
2018-10-17T07:24:51.895Z,2.76
2018-10-17T07:25:52.343Z,2.86
2018-10-17T07:26:52.815Z,2.94
2018-10-17T07:27:53.338Z,3.04
2018-10-17T07:28:53.801Z,3.14
2018-10-17T07:29:54.328Z,3.20
2018-10-17T07:30:54.753Z,3.19
2018-10-17T07:31:55.168Z,3.23
2018-10-17T07:32:55.637Z,3.14
2018-10-17T07:33:56.108Z,2.99
2018-10-17T07:34:56.577Z,2.90
2018-10-17T07:35:57.103Z,2.80
2018-10-17T07:36:57.520Z,2.74
2018-10-17T07:37:58.039Z,2.78
2018-10-17T07:38:58.460Z,2.83
2018-10-17T07:39:58.930Z,2.84
2018-10-17T07:40:59.402Z,2.83
2018-10-17T07:41:59.923Z,2.82
2018-10-17T07:43:00.339Z,2.84
2018-10-17T07:44:00.809Z,2.84
2018-10-17T07:45:01.281Z,2.76
2018-10-17T07:46:01.751Z,2.64
2018-10-17T07:47:02.223Z,2.54
2018-10-17T07:48:02.706Z,2.59
2018-10-17T07:49:03.164Z,2.62
2018-10-17T07:50:03.637Z,2.72
2018-10-17T07:51:04.105Z,2.74
2018-10-17T07:52:04.582Z,2.74
2018-10-17T07:53:05.114Z,2.70
2018-10-17T07:54:05.606Z,2.72
2018-10-17T07:55:05.994Z,2.78
2018-10-17T07:56:06.469Z,2.92
2018-10-17T07:57:06.941Z,2.88
2018-10-17T07:58:07.412Z,2.84
2018-10-17T07:59:07.883Z,2.79
2018-10-17T08:00:08.403Z,2.82
2018-10-17T08:01:08.832Z,2.86
2018-10-17T08:02:09.304Z,2.88
2018-10-17T08:03:09.829Z,2.92
2018-10-17T08:04:10.255Z,2.88
2018-10-17T08:05:10.725Z,2.86
2018-10-17T08:06:11.292Z,2.82
2018-10-17T08:07:11.671Z,2.86
2018-10-17T08:08:12.146Z,2.94
2018-10-17T08:09:12.620Z,2.96
2018-10-17T08:10:13.095Z,3.03
2018-10-17T08:11:13.570Z,2.98
2018-10-17T08:12:14.127Z,2.96
2018-10-17T08:13:14.519Z,2.88
2018-10-17T08:14:15.086Z,2.66
2018-10-17T08:15:15.476Z,2.67
2018-10-17T08:16:15.945Z,2.75
2018-10-17T08:17:16.415Z,2.82
2018-10-17T08:18:16.924Z,2.84
2018-10-17T08:19:17.364Z,2.77
2018-10-17T08:20:17.839Z,2.71
2018-10-17T08:21:18.380Z,2.68
2018-10-17T08:22:18.785Z,2.73
2018-10-17T08:23:19.259Z,2.70
2018-10-17T08:24:19.733Z,2.56
2018-10-17T08:25:20.208Z,2.59
2018-10-17T08:26:20.678Z,2.64
2018-10-17T08:27:21.220Z,2.64
2018-10-17T08:28:21.626Z,2.64
2018-10-17T08:29:22.098Z,2.62
2018-10-17T08:30:22.573Z,2.63
2018-10-17T08:31:23.042Z,2.66
2018-10-17T08:32:23.516Z,2.65
2018-10-17T08:33:23.989Z,2.68
2018-10-17T08:34:24.460Z,2.72
2018-10-17T08:35:25.013Z,2.72
2018-10-17T08:36:25.607Z,2.78
2018-10-17T08:37:26.224Z,2.92
2018-10-17T08:38:26.352Z,3.02
2018-10-17T08:39:26.824Z,3.06
2018-10-17T08:40:27.291Z,3.06
2018-10-17T08:41:27.765Z,3.15
2018-10-17T08:42:28.234Z,3.19
2018-10-17T08:43:28.704Z,3.16
2018-10-17T08:44:29.179Z,3.20
2018-10-17T08:45:29.648Z,3.14
2018-10-17T08:46:30.118Z,3.18
2018-10-17T08:47:30.591Z,3.16
2018-10-17T08:48:31.061Z,3.21
2018-10-17T08:49:31.531Z,3.30
2018-10-17T08:50:32.053Z,3.26
2018-10-17T08:51:32.471Z,3.28
2018-10-17T08:52:32.943Z,3.31
2018-10-17T08:53:33.413Z,3.34
2018-10-17T08:54:33.917Z,3.44
2018-10-17T08:55:34.365Z,3.52
2018-10-17T08:56:34.868Z,3.60
2018-10-17T08:57:35.404Z,3.69
2018-10-17T08:58:35.901Z,3.64
2018-10-17T08:59:36.304Z,3.62
2018-10-17T09:00:36.920Z,3.46
2018-10-17T09:01:37.223Z,3.40
2018-10-17T09:02:37.667Z,3.58
2018-10-17T09:03:38.217Z,3.69
2018-10-17T09:04:38.623Z,3.66
2018-10-17T09:05:39.120Z,3.75
2018-10-17T09:06:39.579Z,3.77
2018-10-17T09:07:40.129Z,3.74
2018-10-17T09:08:40.503Z,3.78
2018-10-17T09:10:41.488Z,3.87
2018-10-17T09:11:41.956Z,3.98
2018-10-17T09:12:42.416Z,3.86
2018-10-17T09:13:42.918Z,3.78
2018-10-17T09:14:43.346Z,3.72
2018-10-17T09:15:43.829Z,3.64
2018-10-17T09:16:44.350Z,3.66
2018-10-17T09:17:44.793Z,3.78
2018-10-17T09:18:45.282Z,3.78
2018-10-17T09:19:45.861Z,3.86
2018-10-17T09:20:46.602Z,3.90
2018-10-17T09:21:47.105Z,3.97
2018-10-17T09:22:47.159Z,4.08
2018-10-17T09:23:47.692Z,4.03
2018-10-17T09:24:48.089Z,4.01
2018-10-17T09:25:48.582Z,4.07
2018-10-17T09:26:49.070Z,4.12
2018-10-17T09:27:49.548Z,4.09
2018-10-17T09:28:50.081Z,3.98
2018-10-17T09:29:50.494Z,3.96
2018-10-17T09:30:50.960Z,3.89
2018-10-17T09:31:51.414Z,3.61
2018-10-17T09:32:51.933Z,3.61
2018-10-17T09:33:52.443Z,3.73
2018-10-17T09:34:52.850Z,3.86
2018-10-17T09:35:53.355Z,4.00
2018-10-17T09:36:53.790Z,4.12
2018-10-17T09:37:54.297Z,4.20
2018-10-17T09:38:54.758Z,4.29
2018-10-17T09:39:55.237Z,4.40
2018-10-17T09:40:56.151Z,4.58
2018-10-17T09:41:56.176Z,4.70
2018-10-17T09:42:56.623Z,4.76
2018-10-17T09:43:57.206Z,4.72
2018-10-17T09:44:57.613Z,4.78
2018-10-17T09:45:58.068Z,4.88
2018-10-17T09:46:58.533Z,5.03
2018-10-17T09:47:59.055Z,5.04
2018-10-17T09:48:59.466Z,5.03
2018-10-17T09:49:59.948Z,5.02
2018-10-17T09:51:00.467Z,5.05
2018-10-17T09:52:00.948Z,5.14
2018-10-17T09:53:01.392Z,5.06
2018-10-17T09:55:02.311Z,4.84
2018-10-17T09:56:02.822Z,4.80
2018-10-17T09:57:03.268Z,4.74
2018-10-17T09:58:03.813Z,4.75
2018-10-17T09:59:04.264Z,4.91
2018-10-17T10:00:04.726Z,5.02
2018-10-17T10:01:05.160Z,5.02
2018-10-17T10:02:05.671Z,5.04
2018-10-17T10:03:06.075Z,5.02
2018-10-17T10:04:06.679Z,5.02
2018-10-17T10:05:07.033Z,4.94
2018-10-17T10:06:07.560Z,4.90
2018-10-17T10:07:07.977Z,4.88
2018-10-17T10:08:08.446Z,4.92
2018-10-17T10:09:08.973Z,5.08
2018-10-17T10:10:09.464Z,5.22
2018-10-17T10:11:09.947Z,5.34
2018-10-17T10:12:10.660Z,5.38
2018-10-17T10:13:10.810Z,5.48
2018-10-17T10:15:11.755Z,5.52
2018-10-17T10:16:12.320Z,5.59
2018-10-17T10:17:12.735Z,5.42
2018-10-17T10:18:13.200Z,5.40
2018-10-17T10:19:13.705Z,5.63
2018-10-17T10:20:14.114Z,5.91
2018-10-17T10:21:14.579Z,6.10
2018-10-17T10:22:15.330Z,6.18
2018-10-17T10:23:15.616Z,6.12
2018-10-17T10:24:16.121Z,6.14
2018-10-17T10:25:16.556Z,6.10
2018-10-17T10:26:17.134Z,6.01
2018-10-17T10:27:17.427Z,5.90
2018-10-17T10:28:17.996Z,5.81
2018-10-17T10:29:18.590Z,5.68
2018-10-17T10:30:18.871Z,5.62
2018-10-17T10:31:19.884Z,5.55
2018-10-17T10:32:19.794Z,5.54
2018-10-17T10:33:20.269Z,5.56
2018-10-17T10:34:20.728Z,5.57
2018-10-17T10:35:21.190Z,5.60
2018-10-17T10:36:21.648Z,5.54
2018-10-17T10:37:22.171Z,5.55
2018-10-17T10:38:22.581Z,5.64
2018-10-17T10:39:23.120Z,5.67
2018-10-17T10:40:23.611Z,5.61
2018-10-17T10:41:23.981Z,5.66
2018-10-17T10:42:24.457Z,5.80
2018-10-17T10:43:24.946Z,5.86
2018-10-17T10:44:25.487Z,5.93
2018-10-17T10:45:25.907Z,5.78
2018-10-17T10:46:26.341Z,5.64
2018-10-17T10:47:26.822Z,5.46
2018-10-17T10:48:27.326Z,5.35
2018-10-17T10:49:27.833Z,5.00
2018-10-17T10:50:28.244Z,4.96
2018-10-17T10:51:28.726Z,5.06
2018-10-17T10:52:29.177Z,5.21
2018-10-17T10:53:29.653Z,5.40
2018-10-17T10:54:30.163Z,5.55
2018-10-17T10:55:30.622Z,5.70
2018-10-17T10:56:31.098Z,5.77
2018-10-17T10:57:31.552Z,5.74
2018-10-17T10:58:32.306Z,5.81
2018-10-17T10:59:32.761Z,5.84
2018-10-17T11:00:33.210Z,5.68
2018-10-17T11:01:33.468Z,5.26
2018-10-17T11:02:33.930Z,5.14
2018-10-17T11:03:35.031Z,5.14
2018-10-17T11:04:34.983Z,5.18
2018-10-17T11:05:35.643Z,5.14
2018-10-17T11:06:36.077Z,5.34
2018-10-17T11:07:36.320Z,5.28
2018-10-17T11:09:37.311Z,5.23
2018-10-17T11:10:37.730Z,5.18
2018-10-17T11:11:38.223Z,5.33
2018-10-17T11:12:38.686Z,5.40
2018-10-17T11:13:39.163Z,5.34
2018-10-17T11:14:39.778Z,5.34
2018-10-17T11:15:40.131Z,5.41
2018-10-17T11:16:40.583Z,5.37
2018-10-17T11:17:41.455Z,5.28
2018-10-17T11:18:41.727Z,5.06
2018-10-17T11:19:42.257Z,4.95
2018-10-17T11:20:42.585Z,4.82
2018-10-17T11:21:43.253Z,4.78
2018-10-17T11:22:43.455Z,4.62
2018-10-17T11:23:43.919Z,4.52
2018-10-17T11:24:44.421Z,4.49
2018-10-17T11:25:44.880Z,4.52
2018-10-17T11:26:45.346Z,4.44
2018-10-17T11:27:45.808Z,4.35
2018-10-17T11:28:46.320Z,4.34
2018-10-17T11:29:46.794Z,4.20
2018-10-17T11:30:47.241Z,4.20
2018-10-17T11:31:47.991Z,4.13
2018-10-17T11:32:48.889Z,3.98
2018-10-17T11:33:48.648Z,4.02
2018-10-17T11:34:49.271Z,3.95
2018-10-17T11:35:49.622Z,3.99
2018-10-17T11:36:50.158Z,4.08
2018-10-17T11:37:50.602Z,4.16
2018-10-17T11:38:51.036Z,4.16
2018-10-17T11:39:51.638Z,4.16
2018-10-17T11:40:52.017Z,4.16
2018-10-17T11:41:52.470Z,4.05
2018-10-17T11:42:52.932Z,4.03
2018-10-17T11:43:53.410Z,3.94
2018-10-17T11:44:53.916Z,3.97
2018-10-17T11:45:54.345Z,4.05
2018-10-17T11:46:54.824Z,4.26
2018-10-17T11:48:55.968Z,4.52
2018-10-17T11:49:56.269Z,4.60
2018-10-17T11:50:56.719Z,4.70
2018-10-17T11:51:57.227Z,4.56
2018-10-17T11:52:57.695Z,4.54
2018-10-17T11:53:58.153Z,4.68
2018-10-17T11:55:59.076Z,4.65
2018-10-17T11:56:59.571Z,4.54
2018-10-17T11:58:00.132Z,4.28
2018-10-17T11:59:00.563Z,4.04
2018-10-17T12:00:00.986Z,4.02
2018-10-17T12:01:01.460Z,3.98
2018-10-17T12:02:01.922Z,4.00
2018-10-17T12:03:02.465Z,4.31
2018-10-17T12:04:03.279Z,4.48
2018-10-17T12:05:03.792Z,4.44
2018-10-17T12:06:03.880Z,4.30
2018-10-17T12:07:04.299Z,4.02
2018-10-17T12:08:04.769Z,3.83
2018-10-17T12:09:05.283Z,3.78
2018-10-17T12:10:05.767Z,3.90
2018-10-17T12:11:06.277Z,4.09
2018-10-17T12:12:06.918Z,4.17
2018-10-17T12:13:07.142Z,4.12
2018-10-17T12:14:07.595Z,4.12
2018-10-17T12:15:08.123Z,4.21
2018-10-17T12:16:08.539Z,4.18
2018-10-17T12:17:09.047Z,4.33
2018-10-17T12:18:09.628Z,4.50
2018-10-17T12:19:10.047Z,4.44
2018-10-17T12:20:10.487Z,4.34
2018-10-17T12:21:10.925Z,4.17
2018-10-17T12:22:11.392Z,4.14
2018-10-17T12:23:11.878Z,4.12
2018-10-17T12:24:12.450Z,4.20
2018-10-17T12:25:12.843Z,4.46
2018-10-17T12:26:13.268Z,4.58
2018-10-17T12:27:13.827Z,4.48
2018-10-17T12:28:14.270Z,4.42
2018-10-17T12:29:14.943Z,4.32
2018-10-17T12:30:15.268Z,4.34
2018-10-17T12:31:15.650Z,4.52
2018-10-17T12:32:16.116Z,4.60
2018-10-17T12:33:16.660Z,4.58
2018-10-17T12:34:17.048Z,4.57
2018-10-17T12:35:17.548Z,4.49
2018-10-17T12:36:18.031Z,4.41
2018-10-17T12:37:18.491Z,4.16
2018-10-17T12:38:18.950Z,4.10
2018-10-17T12:39:19.428Z,4.17
2018-10-17T12:41:20.412Z,4.53
2018-10-17T12:42:20.840Z,4.78
2018-10-17T12:43:21.326Z,4.78
2018-10-17T12:44:21.790Z,4.56
2018-10-17T12:45:22.347Z,4.52
2018-10-17T12:46:22.723Z,4.56
2018-10-17T12:47:23.189Z,4.58
2018-10-17T12:48:23.649Z,4.56
2018-10-17T12:49:24.120Z,4.58
2018-10-17T12:50:24.714Z,4.56
2018-10-17T12:51:25.093Z,4.45
2018-10-17T12:52:25.596Z,4.46
2018-10-17T12:53:26.093Z,4.60
2018-10-17T12:54:26.489Z,4.58
2018-10-17T12:55:26.961Z,4.67
2018-10-17T12:57:27.938Z,4.88
2018-10-17T12:58:28.397Z,5.00
2018-10-17T12:59:28.862Z,4.86
2018-10-17T13:00:29.324Z,4.60
2018-10-17T13:01:29.845Z,4.64
2018-10-17T13:02:30.303Z,4.74
2018-10-17T13:03:30.763Z,4.70
2018-10-17T13:04:31.237Z,4.69
2018-10-17T13:05:31.681Z,4.52
2018-10-17T13:06:32.151Z,4.48
2018-10-17T13:07:32.627Z,4.41
2018-10-17T13:08:33.095Z,4.40
2018-10-17T13:09:33.579Z,4.40
2018-10-17T13:10:34.040Z,4.30
2018-10-17T13:11:34.574Z,4.22
2018-10-17T13:12:34.987Z,4.25
2018-10-17T13:13:35.457Z,4.32
2018-10-17T13:14:35.932Z,4.27
2018-10-17T13:15:36.455Z,4.23
2018-10-17T13:16:36.883Z,4.24
2018-10-17T13:17:37.350Z,4.32
2018-10-17T13:18:37.835Z,4.32
2018-10-17T13:19:38.294Z,4.34
2018-10-17T13:20:38.765Z,4.24
2018-10-17T13:21:39.247Z,4.22
2018-10-17T13:22:39.714Z,4.30
2018-10-17T13:23:40.185Z,4.46
2018-10-17T13:24:40.703Z,4.70
2018-10-17T13:25:41.129Z,4.77
2018-10-17T13:26:41.601Z,4.62
2018-10-17T13:27:42.075Z,4.50
2018-10-17T13:28:42.547Z,4.44
2018-10-17T13:29:43.049Z,4.40
2018-10-17T13:30:43.493Z,4.20
2018-10-17T13:31:43.964Z,4.20